createdAt,value
2023-04-03T00:01:29.246Z,98882.69
2023-04-03T00:03:57.093Z,98897.81
2023-04-03T00:06:27.784Z,98887.72
2023-04-03T00:08:55.571Z,98887.19
2023-04-03T00:11:23.231Z,98887.09
2023-04-03T00:13:51.377Z,98887.09
2023-04-03T00:16:19.142Z,98882.56
2023-04-03T00:18:46.661Z,98879.63
2023-04-03T00:21:16.589Z,98884.31
2023-04-03T00:23:44.465Z,98889.03
2023-04-03T00:26:12.078Z,98894.63
2023-04-03T00:28:41.192Z,98893.75
2023-04-03T00:31:08.746Z,98895.69
2023-04-03T00:33:36.504Z,98893.31
2023-04-03T00:36:10.377Z,98896.03
2023-04-03T00:38:38.462Z,98896.72
2023-04-03T00:41:06.110Z,98893.41
2023-04-03T00:43:33.868Z,98894.59
2023-04-03T00:46:02.218Z,98903.66
2023-04-03T00:48:44.204Z,98901.63
2023-04-03T00:51:20.384Z,98895.38
2023-04-03T00:53:56.659Z,98887.81
2023-04-03T00:56:28.867Z,98893.03
2023-04-03T00:59:10.883Z,98902.84
2023-04-03T01:01:39.674Z,98894.69
2023-04-03T01:04:26.056Z,98898.72
2023-04-03T01:06:53.746Z,98890.44
2023-04-03T01:09:21.673Z,98891.09
2023-04-03T01:11:49.972Z,98882.00
2023-04-03T01:14:17.972Z,98881.50
2023-04-03T01:16:55.676Z,98890.59
2023-04-03T01:19:25.200Z,98885.81
2023-04-03T01:22:29.902Z,98887.38
2023-04-03T01:24:57.441Z,98892.28
2023-04-03T01:27:25.070Z,98892.19
2023-04-03T01:29:52.585Z,98887.91
2023-04-03T01:32:20.326Z,98889.22
2023-04-03T01:34:47.824Z,98892.19
2023-04-03T01:37:15.544Z,98893.06
2023-04-03T01:39:42.994Z,98890.72
2023-04-03T01:42:13.424Z,98892.31
2023-04-03T01:44:44.228Z,98892.38
2023-04-03T01:47:11.789Z,98882.44
2023-04-03T01:49:41.188Z,98885.06
2023-04-03T01:52:08.696Z,98886.44
2023-04-03T01:54:36.259Z,98883.16
2023-04-03T01:57:04.037Z,98886.22
2023-04-03T01:59:32.002Z,98892.91
2023-04-03T02:01:59.571Z,98892.91
2023-04-03T02:04:27.169Z,98900.44
2023-04-03T02:06:54.821Z,98894.31
2023-04-03T02:09:22.372Z,98906.50
2023-04-03T02:11:50.347Z,98903.91
2023-04-03T02:14:17.909Z,98907.44
2023-04-03T02:16:45.607Z,98909.63
2023-04-03T02:19:13.081Z,98913.09
2023-04-03T02:21:41.268Z,98903.81
2023-04-03T02:24:09.510Z,98898.31
2023-04-03T02:26:37.136Z,98897.88
2023-04-03T02:29:06.027Z,98900.41
2023-04-03T02:31:33.777Z,98895.91
2023-04-03T02:34:03.067Z,98902.22
2023-04-03T02:36:31.890Z,98897.16
2023-04-03T02:39:03.607Z,98897.34
2023-04-03T02:41:36.025Z,98891.91
2023-04-03T02:44:08.192Z,98894.34
2023-04-03T02:46:35.742Z,98891.53
2023-04-03T02:49:04.862Z,98896.97
2023-04-03T02:51:32.537Z,98896.88
2023-04-03T02:54:00.279Z,98886.81
2023-04-03T02:56:31.544Z,98888.91
2023-04-03T02:58:59.130Z,98884.69
2023-04-03T03:01:29.515Z,98879.75
2023-04-03T03:03:57.109Z,98881.94
2023-04-03T03:06:26.047Z,98882.13
2023-04-03T03:08:54.286Z,98876.03
2023-04-03T03:11:22.058Z,98880.97
2023-04-03T03:13:50.504Z,98881.75
2023-04-03T03:16:18.269Z,98879.19
2023-04-03T03:18:45.759Z,98875.59
2023-04-03T03:21:13.409Z,98866.91
2023-04-03T03:23:41.645Z,98875.03
2023-04-03T03:26:13.353Z,98868.59
2023-04-03T03:28:41.942Z,98865.25
2023-04-03T03:31:11.627Z,98857.75
2023-04-03T03:33:40.813Z,98860.72
2023-04-03T03:36:08.885Z,98865.97
2023-04-03T03:38:37.681Z,98860.63
2023-04-03T03:41:05.382Z,98861.16
2023-04-03T03:43:34.745Z,98865.00
2023-04-03T03:46:03.770Z,98858.38
2023-04-03T03:48:31.424Z,98854.03
2023-04-03T03:50:58.979Z,98859.28
2023-04-03T03:53:30.872Z,98861.00
2023-04-03T03:56:03.497Z,98868.06
2023-04-03T03:58:32.381Z,98871.28
2023-04-03T04:01:08.397Z,98876.50
2023-04-03T04:03:41.883Z,98872.88
2023-04-03T04:06:11.547Z,98871.06
2023-04-03T04:08:39.038Z,98870.63
2023-04-03T04:11:10.046Z,98877.03
2023-04-03T04:13:38.423Z,98890.38
2023-04-03T04:16:07.001Z,98894.03
2023-04-03T04:18:34.840Z,98905.63
2023-04-03T04:21:02.543Z,98903.25
2023-04-03T04:23:30.526Z,98910.31
2023-04-03T04:25:59.624Z,98913.19
2023-04-03T04:28:29.073Z,98928.06
2023-04-03T04:30:59.034Z,98924.34
2023-04-03T04:33:28.191Z,98937.09
2023-04-03T04:35:57.206Z,98941.19
2023-04-03T04:38:24.775Z,98942.78
2023-04-03T04:40:54.099Z,98943.69
2023-04-03T04:43:22.347Z,98946.31
2023-04-03T04:46:06.867Z,98942.59
2023-04-03T04:48:39.122Z,98947.28
2023-04-03T04:51:07.716Z,98943.16
2023-04-03T04:53:37.601Z,98944.03
2023-04-03T04:56:06.297Z,98948.94
2023-04-03T04:58:35.735Z,98946.53
2023-04-03T05:01:07.530Z,98944.59
2023-04-03T05:03:38.647Z,98936.63
2023-04-03T05:06:06.723Z,98947.88
2023-04-03T05:08:35.664Z,98948.38
2023-04-03T05:11:04.506Z,98955.16
2023-04-03T05:13:32.905Z,98954.69
2023-04-03T05:16:00.531Z,98948.38
2023-04-03T05:18:28.718Z,98956.06
2023-04-03T05:20:59.719Z,98948.38
2023-04-03T05:23:27.788Z,98954.69
2023-04-03T05:25:56.916Z,98954.06
2023-04-03T05:28:25.437Z,98956.34
2023-04-03T05:30:59.885Z,98962.16
2023-04-03T05:33:33.673Z,98959.50
2023-04-03T05:36:06.863Z,98964.88
2023-04-03T05:38:38.615Z,98965.25
2023-04-03T05:41:06.790Z,98965.25
2023-04-03T05:43:35.678Z,98974.81
2023-04-03T05:46:03.643Z,98980.75
2023-04-03T05:48:31.476Z,98973.41
2023-04-03T05:50:59.708Z,98985.34
2023-04-03T05:53:32.723Z,98985.09
2023-04-03T05:56:04.215Z,98971.84
2023-04-03T05:58:35.784Z,98984.22
2023-04-03T06:01:03.491Z,98982.91
2023-04-03T06:03:31.632Z,98979.84
2023-04-03T06:05:59.268Z,98980.53
2023-04-03T06:08:26.872Z,98994.25
2023-04-03T06:10:54.384Z,98995.91
2023-04-03T06:13:21.873Z,98987.47
2023-04-03T06:15:49.626Z,98989.16
2023-04-03T06:18:17.683Z,98993.97
2023-04-03T06:20:47.679Z,98991.22
2023-04-03T06:23:15.155Z,98997.91
2023-04-03T06:25:43.085Z,98997.47
2023-04-03T06:28:11.260Z,99007.56
2023-04-03T06:30:39.211Z,98998.91
2023-04-03T06:33:07.825Z,98997.69
2023-04-03T06:35:36.181Z,98999.81
2023-04-03T06:38:08.820Z,98992.44
2023-04-03T06:40:36.973Z,98986.91
2023-04-03T06:43:04.702Z,98977.13
2023-04-03T06:45:32.293Z,98975.91
2023-04-03T06:47:59.837Z,98978.84
2023-04-03T06:50:27.306Z,98980.88
2023-04-03T06:52:54.732Z,98986.31
2023-04-03T06:55:23.033Z,99004.44
2023-04-03T06:57:50.646Z,99005.59
2023-04-03T07:00:18.983Z,99001.88
2023-04-03T07:02:46.733Z,99006.44
2023-04-03T07:05:14.657Z,99001.53
2023-04-03T07:07:42.244Z,99002.34
2023-04-03T07:10:11.204Z,98998.97
2023-04-03T07:12:39.158Z,99009.50
2023-04-03T07:15:08.138Z,99009.59
2023-04-03T07:17:36.901Z,99018.19
2023-04-03T07:20:05.843Z,99015.72
2023-04-03T07:22:33.907Z,99019.72
2023-04-03T07:25:02.251Z,99013.41
2023-04-03T07:27:29.760Z,99009.88
2023-04-03T07:29:57.300Z,99019.06
2023-04-03T07:32:24.914Z,99022.16
2023-04-03T07:34:52.465Z,99013.19
2023-04-03T07:37:20.170Z,99006.47
2023-04-03T07:39:47.597Z,99006.38
2023-04-03T07:42:15.889Z,99001.78
2023-04-03T07:44:43.761Z,99004.75
2023-04-03T07:47:11.288Z,99000.13
2023-04-03T07:49:40.728Z,98997.63
2023-04-03T07:52:10.157Z,98988.94
2023-04-03T07:54:37.866Z,98995.25
2023-04-03T07:57:06.398Z,99000.13
2023-04-03T07:59:35.893Z,98998.41
2023-04-03T08:02:06.297Z,98995.38
2023-04-03T08:04:34.152Z,98992.78
2023-04-03T08:07:01.739Z,98993.66
2023-04-03T08:09:29.326Z,98996.56
2023-04-03T08:11:56.766Z,98989.50
2023-04-03T08:14:24.231Z,98986.06
2023-04-03T08:16:52.371Z,98975.72
2023-04-03T08:19:26.015Z,98971.34
2023-04-03T08:21:56.245Z,98972.47
2023-04-03T08:24:23.878Z,98967.13
2023-04-03T08:26:52.084Z,98965.22
2023-04-03T08:29:19.720Z,98967.56
2023-04-03T08:31:47.323Z,98957.25
2023-04-03T08:34:15.697Z,98963.72
2023-04-03T08:36:43.654Z,98964.78
2023-04-03T08:39:11.798Z,98967.44
2023-04-03T08:41:40.767Z,98965.78
2023-04-03T08:44:27.362Z,98962.66
2023-04-03T08:47:27.798Z,98949.66
2023-04-03T08:50:06.426Z,98952.75
2023-04-03T08:52:50.843Z,98940.50
2023-04-03T08:55:41.562Z,98942.19
2023-04-03T08:58:25.049Z,98941.78
2023-04-03T09:00:59.569Z,98936.72
2023-04-03T09:03:29.775Z,98926.53
2023-04-03T09:06:06.227Z,98924.97
2023-04-03T09:08:49.757Z,98920.19
2023-04-03T09:11:30.360Z,98912.63
2023-04-03T09:14:04.434Z,98918.56
2023-04-03T09:16:35.225Z,98921.69
2023-04-03T09:19:32.565Z,98924.91
2023-04-03T09:22:20.054Z,98922.88
2023-04-03T09:25:02.627Z,98931.69
2023-04-03T09:27:31.610Z,98927.78
2023-04-03T09:29:59.845Z,98920.03
2023-04-03T09:32:30.955Z,98924.44
2023-04-03T09:35:18.979Z,98931.25
2023-04-03T09:37:57.810Z,98925.03
2023-04-03T09:40:29.687Z,98927.66
2023-04-03T09:43:12.988Z,98923.72
2023-04-03T09:45:40.824Z,98920.44
2023-04-03T09:48:27.632Z,98919.13
2023-04-03T09:51:02.665Z,98916.84
2023-04-03T09:53:40.671Z,98904.69
2023-04-03T09:56:23.292Z,98902.59
2023-04-03T09:59:01.032Z,98899.56
2023-04-03T10:01:32.322Z,98903.41
2023-04-03T10:04:09.310Z,98903.22
2023-04-03T10:06:51.050Z,98899.44
2023-04-03T10:09:30.974Z,98893.00
2023-04-03T10:12:13.534Z,98882.25
2023-04-03T10:14:57.000Z,98879.81
2023-04-03T10:17:58.692Z,98883.59
2023-04-03T10:20:44.036Z,98887.97
2023-04-03T10:23:21.486Z,98893.25
2023-04-03T10:26:05.245Z,98896.91
2023-04-03T10:28:56.240Z,98886.88
2023-04-03T10:31:47.793Z,98885.56
2023-04-03T10:34:34.928Z,98894.88
2023-04-03T10:37:23.294Z,98901.00
2023-04-03T10:40:37.140Z,98889.34
2023-04-03T10:43:11.209Z,98892.88
2023-04-03T10:45:50.206Z,98891.13
2023-04-03T10:49:03.540Z,98892.09
2023-04-03T10:51:44.002Z,98894.03
2023-04-03T10:54:47.131Z,98891.13
2023-04-03T10:57:14.751Z,98898.50
2023-04-03T10:59:46.547Z,98912.38
2023-04-03T11:02:32.532Z,98908.19
2023-04-03T11:05:15.035Z,98918.69
2023-04-03T11:07:49.267Z,98909.31
2023-04-03T11:10:45.119Z,98905.34
2023-04-03T11:13:45.285Z,98910.22
2023-04-03T11:16:27.508Z,98909.06
2023-04-03T11:19:25.556Z,98910.25
2023-04-03T11:22:01.846Z,98916.53
2023-04-03T11:24:33.570Z,98922.88
2023-04-03T11:27:05.398Z,98917.00
2023-04-03T11:29:43.310Z,98913.25
2023-04-03T11:33:07.408Z,98915.16
2023-04-03T11:35:37.102Z,98923.72
2023-04-03T11:38:07.590Z,98912.06
2023-04-03T11:40:39.463Z,98906.06
2023-04-03T11:43:31.634Z,98900.47
2023-04-03T11:46:07.425Z,98896.06
2023-04-03T11:48:40.935Z,98892.63
2023-04-03T11:51:22.655Z,98897.63
2023-04-03T11:54:00.208Z,98901.94
2023-04-03T11:56:33.750Z,98895.47
2023-04-03T11:59:17.612Z,98895.22
2023-04-03T12:01:53.732Z,98891.81
2023-04-03T12:04:33.684Z,98891.00
2023-04-03T12:07:25.619Z,98881.72
2023-04-03T12:10:03.552Z,98875.25
2023-04-03T12:13:04.190Z,98874.50
2023-04-03T12:15:42.620Z,98866.44
2023-04-03T12:18:46.024Z,98872.56
2023-04-03T12:21:27.628Z,98856.41
2023-04-03T12:24:08.235Z,98857.81
2023-04-03T12:26:48.959Z,98862.28
2023-04-03T12:29:39.642Z,98852.59
2023-04-03T12:32:54.144Z,98852.25
2023-04-03T12:35:48.842Z,98850.09
2023-04-03T12:39:00.940Z,98852.59
2023-04-03T12:42:11.699Z,98848.72
2023-04-03T12:44:55.915Z,98841.09
2023-04-03T12:47:41.801Z,98841.03
2023-04-03T12:50:35.654Z,98836.03
2023-04-03T12:53:36.984Z,98836.66
2023-04-03T12:59:24.774Z,98825.63
2023-04-03T13:04:57.202Z,98824.22
2023-04-03T13:07:46.412Z,98828.25
2023-04-03T13:10:24.116Z,98830.22
2023-04-03T13:13:23.468Z,98826.53
2023-04-03T13:15:58.644Z,98824.22
2023-04-03T13:18:42.170Z,98822.63
2023-04-03T13:21:24.994Z,98812.53
2023-04-03T13:24:14.609Z,98805.44
2023-04-03T13:26:44.535Z,98810.03
2023-04-03T13:29:36.368Z,98801.22
2023-04-03T13:32:06.611Z,98803.84
2023-04-03T13:34:43.390Z,98797.59
2023-04-03T13:37:34.567Z,98793.91
2023-04-03T13:40:07.681Z,98787.44
2023-04-03T13:42:41.634Z,98775.72
2023-04-03T13:45:24.580Z,98771.94
2023-04-03T13:48:20.099Z,98771.47
2023-04-03T13:51:24.600Z,98763.09
2023-04-03T13:53:58.939Z,98759.16
2023-04-03T13:56:29.019Z,98764.56
2023-04-03T13:59:35.554Z,98759.69
2023-04-03T14:02:06.318Z,98755.88
2023-04-03T14:04:38.498Z,98743.75
2023-04-03T14:07:07.906Z,98740.41
2023-04-03T14:09:35.966Z,98746.88
2023-04-03T14:12:30.875Z,98738.81
2023-04-03T14:15:04.330Z,98735.22
2023-04-03T14:17:32.591Z,98723.31
2023-04-03T14:20:01.998Z,98718.28
2023-04-03T14:22:35.860Z,98712.91
2023-04-03T14:25:06.357Z,98700.75
2023-04-03T14:27:46.459Z,98703.31
2023-04-03T14:30:21.187Z,98703.31
2023-04-03T14:32:50.180Z,98703.88
2023-04-03T14:35:19.978Z,98703.31
2023-04-03T14:37:49.533Z,98700.53
2023-04-03T14:40:24.237Z,98701.31
2023-04-03T14:42:56.062Z,98696.34
2023-04-03T14:45:24.805Z,98704.47
2023-04-03T14:47:56.303Z,98704.84
2023-04-03T14:50:27.948Z,98700.03
2023-04-03T14:52:59.838Z,98704.84
2023-04-03T14:55:29.298Z,98717.31
2023-04-03T14:57:57.086Z,98714.09
2023-04-03T15:00:24.929Z,98715.91
2023-04-03T15:02:53.121Z,98709.25
2023-04-03T15:05:20.940Z,98704.41
2023-04-03T15:07:56.181Z,98709.97
2023-04-03T15:10:30.886Z,98702.66
2023-04-03T15:13:05.243Z,98697.53
2023-04-03T15:15:41.701Z,98696.19
2023-04-03T15:18:19.570Z,98693.53
2023-04-03T15:20:48.772Z,98685.88
2023-04-03T15:23:18.176Z,98681.81
2023-04-03T15:25:48.621Z,98670.84
2023-04-03T15:28:36.841Z,98666.69
2023-04-03T15:31:06.253Z,98667.53
2023-04-03T15:33:35.699Z,98656.69
2023-04-03T15:36:07.731Z,98647.69
2023-04-03T15:38:44.634Z,98644.09
2023-04-03T15:41:12.178Z,98632.28
2023-04-03T15:43:40.924Z,98621.47
2023-04-03T15:46:09.162Z,98617.09
2023-04-03T15:48:38.378Z,98613.94
2023-04-03T15:51:07.973Z,98597.91
2023-04-03T15:53:35.706Z,98602.16
2023-04-03T15:56:03.282Z,98598.13
2023-04-03T15:58:31.071Z,98607.78
2023-04-03T16:00:59.559Z,98595.72
2023-04-03T16:03:27.550Z,98590.09
2023-04-03T16:05:55.534Z,98573.88
2023-04-03T16:08:23.138Z,98561.44
2023-04-03T16:10:54.789Z,98571.66
2023-04-03T16:13:22.574Z,98575.84
2023-04-03T16:15:50.592Z,98581.31
2023-04-03T16:18:19.586Z,98586.59
2023-04-03T16:20:47.182Z,98589.53
2023-04-03T16:23:14.903Z,98589.22
2023-04-03T16:25:47.522Z,98582.66
2023-04-03T16:28:18.563Z,98582.44
2023-04-03T16:30:48.361Z,98585.97
2023-04-03T16:33:21.833Z,98572.53
2023-04-03T16:35:54.026Z,98566.06
2023-04-03T16:38:23.351Z,98560.56
2023-04-03T16:40:51.653Z,98554.56
2023-04-03T16:43:19.336Z,98534.28
2023-04-03T16:45:47.479Z,98517.69
2023-04-03T16:48:15.415Z,98499.13
2023-04-03T16:50:43.404Z,98486.97
2023-04-03T16:53:12.729Z,98474.59
2023-04-03T16:55:41.488Z,98472.63
2023-04-03T16:58:09.397Z,98465.78
2023-04-03T17:00:57.472Z,98459.75
2023-04-03T17:03:29.404Z,98461.78
2023-04-03T17:05:58.642Z,98457.00
2023-04-03T17:08:26.872Z,98458.22
2023-04-03T17:10:56.833Z,98459.56
2023-04-03T17:13:29.313Z,98470.19
2023-04-03T17:15:57.652Z,98464.00
2023-04-03T17:18:27.523Z,98457.31
2023-04-03T17:20:59.295Z,98459.16
2023-04-03T17:23:31.028Z,98453.06
2023-04-03T17:26:03.004Z,98457.31
2023-04-03T17:28:32.761Z,98458.03
2023-04-03T17:31:03.811Z,98460.56
2023-04-03T17:33:33.445Z,98460.94
2023-04-03T17:36:05.962Z,98458.50
2023-04-03T17:38:35.366Z,98442.38
2023-04-03T17:41:11.229Z,98422.38
2023-04-03T17:43:44.216Z,98424.00
2023-04-03T17:46:13.302Z,98417.91
2023-04-03T17:48:44.522Z,98424.53
2023-04-03T17:51:16.772Z,98425.72
2023-04-03T17:53:45.840Z,98407.41
2023-04-03T17:56:19.348Z,98406.63
2023-04-03T17:58:51.302Z,98393.84
2023-04-03T18:01:23.237Z,98403.66
2023-04-03T18:03:56.153Z,98392.72
2023-04-03T18:06:31.873Z,98390.97
2023-04-03T18:09:16.148Z,98388.50
2023-04-03T18:11:47.255Z,98377.72
2023-04-03T18:14:21.570Z,98372.66
2023-04-03T18:16:50.822Z,98371.97
2023-04-03T18:19:23.343Z,98379.59
2023-04-03T18:22:04.023Z,98370.97
2023-04-03T18:24:36.077Z,98374.94
2023-04-03T18:27:14.392Z,98379.44
2023-04-03T18:29:47.512Z,98390.88
2023-04-03T18:32:21.800Z,98394.38
2023-04-03T18:34:52.162Z,98396.47
2023-04-03T18:37:23.645Z,98407.03
2023-04-03T18:39:53.621Z,98409.94
2023-04-03T18:42:26.193Z,98397.63
2023-04-03T18:45:07.830Z,98380.31
2023-04-03T18:47:37.822Z,98389.47
2023-04-03T18:50:11.315Z,98393.75
2023-04-03T18:52:42.849Z,98403.84
2023-04-03T18:55:13.922Z,98418.94
2023-04-03T18:57:44.379Z,98417.66
2023-04-03T19:00:16.655Z,98410.38
2023-04-03T19:02:48.236Z,98409.19
2023-04-03T19:05:18.695Z,98405.72
2023-04-03T19:07:47.927Z,98406.44
2023-04-03T19:10:18.450Z,98402.50
2023-04-03T19:12:51.347Z,98405.16
2023-04-03T19:15:23.594Z,98421.50
2023-04-03T19:17:57.733Z,98426.22
2023-04-03T19:20:26.380Z,98451.66
2023-04-03T19:22:59.609Z,98465.63
2023-04-03T19:25:28.764Z,98446.66
2023-04-03T19:27:58.428Z,98439.13
2023-04-03T19:30:30.022Z,98431.84
2023-04-03T19:33:04.274Z,98436.84
2023-04-03T19:35:35.280Z,98466.16
2023-04-03T19:38:04.662Z,98469.47
2023-04-03T19:40:34.115Z,98474.72
2023-04-03T19:43:02.218Z,98476.50
2023-04-03T19:45:30.571Z,98474.59
2023-04-03T19:48:01.574Z,98461.47
2023-04-03T19:50:29.465Z,98457.28
2023-04-03T19:52:58.291Z,98440.09
2023-04-03T19:55:31.111Z,98434.69
2023-04-03T19:58:02.605Z,98445.38
2023-04-03T20:00:34.788Z,98444.50
2023-04-03T20:03:04.561Z,98460.25
2023-04-03T20:05:32.600Z,98475.44
2023-04-03T20:08:00.529Z,98484.22
2023-04-03T20:10:29.358Z,98492.94
2023-04-03T20:12:57.319Z,98499.91
2023-04-03T20:15:26.656Z,98481.59
2023-04-03T20:17:54.748Z,98470.84
2023-04-03T20:20:24.288Z,98467.84
2023-04-03T20:22:53.941Z,98459.19
2023-04-03T20:25:43.921Z,98454.69
2023-04-03T20:28:13.636Z,98456.38
2023-04-03T20:30:42.887Z,98450.06
2023-04-03T20:33:10.611Z,98457.38
2023-04-03T20:35:38.456Z,98460.75
2023-04-03T20:38:07.439Z,98453.97
2023-04-03T20:40:37.881Z,98440.00
2023-04-03T20:43:10.560Z,98431.59
2023-04-03T20:45:38.314Z,98421.25
2023-04-03T20:48:06.279Z,98425.91
2023-04-03T20:50:34.769Z,98418.41
2023-04-03T20:53:03.384Z,98423.56
2023-04-03T20:55:31.091Z,98415.16
2023-04-03T20:58:01.449Z,98413.53
2023-04-03T21:00:33.032Z,98423.75
2023-04-03T21:03:02.009Z,98418.56
2023-04-03T21:05:30.524Z,98426.94
2023-04-03T21:08:53.929Z,98408.47
2023-04-03T21:12:17.124Z,98402.84
2023-04-03T21:15:41.303Z,98391.16
2023-04-03T21:18:11.281Z,98389.81
2023-04-03T21:20:40.314Z,98394.50
2023-04-03T21:23:08.026Z,98388.16
2023-04-03T21:25:36.161Z,98385.56
2023-04-03T21:28:07.045Z,98382.28
2023-04-03T21:30:36.207Z,98389.94
2023-04-03T21:33:05.007Z,98393.88
2023-04-03T21:35:33.630Z,98377.06
2023-04-03T21:38:01.214Z,98382.19
2023-04-03T21:40:28.669Z,98394.28
2023-04-03T21:42:56.723Z,98385.16
2023-04-03T21:45:25.526Z,98386.03
2023-04-03T21:47:53.882Z,98383.41
2023-04-03T21:50:21.440Z,98381.38
2023-04-03T21:52:54.606Z,98374.84
2023-04-03T21:55:22.808Z,98381.53
2023-04-03T21:57:55.922Z,98362.59
2023-04-03T22:00:25.239Z,98363.03
2023-04-03T22:02:57.804Z,98358.94
2023-04-03T22:05:36.443Z,98366.59
2023-04-03T22:08:04.264Z,98354.81
2023-04-03T22:10:32.336Z,98355.47
2023-04-03T22:13:02.400Z,98352.53
2023-04-03T22:15:30.225Z,98356.34
2023-04-03T22:17:57.800Z,98353.38
2023-04-03T22:20:25.530Z,98359.13
2023-04-03T22:22:52.953Z,98356.50
2023-04-03T22:25:20.524Z,98368.88
2023-04-03T22:27:47.962Z,98374.44
2023-04-03T22:30:15.635Z,98374.31
2023-04-03T22:32:43.262Z,98368.81
2023-04-03T22:35:12.018Z,98346.44
2023-04-03T22:37:39.564Z,98323.66
2023-04-03T22:40:08.273Z,98317.56
2023-04-03T22:42:35.762Z,98324.81
2023-04-03T22:45:03.736Z,98320.34
2023-04-03T22:47:31.972Z,98333.56
2023-04-03T22:49:59.432Z,98332.38
2023-04-03T22:52:26.972Z,98330.50
2023-04-03T22:54:54.447Z,98333.13
2023-04-03T22:57:21.976Z,98327.53
2023-04-03T22:59:49.709Z,98324.50
2023-04-03T23:02:17.207Z,98319.75
2023-04-03T23:04:44.776Z,98315.00
2023-04-03T23:07:12.300Z,98313.94
2023-04-03T23:09:39.783Z,98312.31
2023-04-03T23:12:09.852Z,98304.69
2023-04-03T23:14:37.412Z,98305.59
2023-04-03T23:17:06.065Z,98309.94
2023-04-03T23:19:35.167Z,98313.28
2023-04-03T23:22:02.715Z,98317.72
2023-04-03T23:24:30.253Z,98305.47
2023-04-03T23:26:57.723Z,98307.25
2023-04-03T23:29:25.185Z,98316.53
2023-04-03T23:31:52.854Z,98315.88
2023-04-03T23:34:20.426Z,98319.94
2023-04-03T23:36:48.236Z,98324.09
2023-04-03T23:39:19.818Z,98322.72
2023-04-03T23:41:48.139Z,98318.41
2023-04-03T23:44:17.037Z,98315.88
2023-04-03T23:46:44.648Z,98308.00
2023-04-03T23:49:14.602Z,98306.34
2023-04-03T23:51:42.118Z,98304.97
2023-04-03T23:54:09.558Z,98302.66
2023-04-03T23:56:37.021Z,98303.84
2023-04-03T23:59:04.759Z,98298.59
